Terminal Aerodrome Forecast
Issued by NWS Cleveland, OH

Home | Current Version | Previous Version | Text Only | Print | Product List | Glossary Off
Versions: 1 2 3 4 5 6 7 8 9 10 11 12 13 14 15 16

000
FTUS41 KCLE 091120
TAFCAK
TAF
KCAK 091120Z 0912/1012 19010KT P6SM SCT250
     FM091500 22012KT P6SM BKN120
     FM100000 26008KT P6SM VCSH OVC040
     FM100200 27012KT 4SM -SHSN OVC015
     FM100900 28012KT P6SM OVC015=

USA.gov is the U.S. government's official web portal to all federal, state and local government web resources and services.